createdAt,value
2019-02-22T00:00:47.379Z,87.60
2019-02-22T00:01:47.377Z,87.55
2019-02-22T00:02:47.378Z,87.32
2019-02-22T00:04:11.877Z,87.36
2019-02-22T00:04:49.887Z,87.60
2019-02-22T00:05:47.881Z,87.51
2019-02-22T00:06:47.879Z,87.51
2019-02-22T00:09:23.604Z,88.18
2019-02-22T00:10:19.618Z,87.98
2019-02-22T00:11:19.611Z,88.03
2019-02-22T00:12:41.112Z,87.60
2019-02-22T00:13:20.115Z,87.89
2019-02-22T00:14:20.107Z,87.89
2019-02-22T00:15:23.649Z,87.79
2019-02-22T00:16:20.617Z,87.98
2019-02-22T00:17:20.613Z,88.46
2019-02-22T00:18:20.611Z,88.27
2019-02-22T00:19:20.611Z,88.37
2019-02-22T00:20:21.118Z,88.56
2019-02-22T00:21:24.113Z,88.46
2019-02-22T00:22:21.110Z,88.65
2019-02-22T00:23:21.110Z,88.46
2019-02-22T00:24:21.610Z,88.70
2019-02-22T00:25:21.610Z,87.65
2019-02-22T00:26:25.611Z,88.08
2019-02-22T00:27:21.619Z,88.03
2019-02-22T00:28:22.110Z,87.55
2019-02-22T00:29:24.111Z,87.46
2019-02-22T00:30:22.116Z,87.55
2019-02-22T00:31:22.110Z,88.03
2019-02-22T00:32:25.621Z,87.55
2019-02-22T00:33:43.611Z,87.55
2019-02-22T00:34:22.611Z,87.46
2019-02-22T00:35:22.690Z,87.55
2019-02-22T00:36:23.130Z,87.46
2019-02-22T00:37:26.624Z,87.46
2019-02-22T00:38:23.111Z,87.74
2019-02-22T00:41:05.718Z,87.89
2019-02-22T00:41:23.609Z,87.89
2019-02-22T00:42:23.611Z,87.89
2019-02-22T00:43:27.614Z,88.51
2019-02-22T00:44:45.114Z,88.37
2019-02-22T00:45:24.109Z,88.93
2019-02-22T00:46:24.112Z,88.51
2019-02-22T00:47:24.118Z,88.46
2019-02-22T00:48:24.609Z,88.37
2019-02-22T00:49:27.615Z,88.98
2019-02-22T00:50:24.615Z,88.79
2019-02-22T00:51:24.618Z,88.41
2019-02-22T00:52:25.112Z,88.51
2019-02-22T00:53:25.115Z,88.41
2019-02-22T00:54:28.615Z,88.60
2019-02-22T00:55:25.111Z,88.51
2019-02-22T00:56:25.613Z,88.60
2019-02-22T00:57:46.614Z,87.74
2019-02-22T00:58:25.609Z,88.03
2019-02-22T00:59:25.086Z,87.40
2019-02-22T01:00:29.610Z,87.46
2019-02-22T01:01:26.109Z,87.50
2019-02-22T01:02:26.111Z,87.79
2019-02-22T01:03:26.153Z,87.40
2019-02-22T01:04:47.609Z,87.12
2019-02-22T01:05:26.611Z,87.40
2019-02-22T01:06:29.609Z,87.31
2019-02-22T01:07:26.623Z,87.46
2019-02-22T01:08:27.107Z,87.40
2019-02-22T01:09:27.109Z,87.50
2019-02-22T01:10:31.082Z,86.93
2019-02-22T01:11:52.109Z,87.02
2019-02-22T01:12:27.609Z,86.65
2019-02-22T01:13:27.613Z,86.83
2019-02-22T01:14:27.610Z,86.93
2019-02-22T01:15:27.608Z,87.02
2019-02-22T01:16:28.112Z,86.26
2019-02-22T01:17:32.125Z,87.02
2019-02-22T01:18:28.109Z,86.83
2019-02-22T01:19:28.109Z,87.02
2019-02-22T01:20:28.632Z,86.93
2019-02-22T01:21:28.609Z,86.83
2019-02-22T01:22:28.611Z,86.83
2019-02-22T01:23:32.117Z,86.93
2019-02-22T01:24:29.118Z,86.83
2019-02-22T01:25:29.105Z,86.74
2019-02-22T01:26:29.112Z,86.93
2019-02-22T01:27:29.113Z,86.36
2019-02-22T01:28:33.112Z,86.74
2019-02-22T01:29:29.622Z,86.83
2019-02-22T01:30:29.609Z,86.93
2019-02-22T01:31:29.614Z,87.02
2019-02-22T01:32:30.107Z,87.21
2019-02-22T01:33:30.108Z,86.93
2019-02-22T01:34:34.108Z,86.93
2019-02-22T01:35:30.112Z,86.93
2019-02-22T01:36:30.615Z,87.02
2019-02-22T01:37:30.609Z,86.83
2019-02-22T01:38:51.608Z,86.83
2019-02-22T01:39:30.610Z,87.12
2019-02-22T01:40:43.061Z,86.74
2019-02-22T01:41:31.108Z,86.74
2019-02-22T01:42:31.109Z,87.12
2019-02-22T01:43:33.404Z,87.02
2019-02-22T01:44:31.608Z,87.50
2019-02-22T01:45:35.108Z,87.60
2019-02-22T01:46:31.607Z,87.02
2019-02-22T01:47:31.611Z,86.83
2019-02-22T01:48:32.107Z,86.93
2019-02-22T01:49:32.108Z,87.79
2019-02-22T01:50:35.608Z,86.83
2019-02-22T01:51:32.119Z,86.83
2019-02-22T01:52:53.608Z,86.65
2019-02-22T01:53:32.608Z,86.83
2019-02-22T01:54:32.610Z,87.88
2019-02-22T01:55:36.607Z,87.21
2019-02-22T01:56:33.117Z,87.60
2019-02-22T01:57:33.110Z,88.17
2019-02-22T01:58:33.108Z,88.74
2019-02-22T01:59:32.594Z,88.55
2019-02-22T02:00:33.612Z,89.03
2019-02-22T02:01:37.612Z,89.31
2019-02-22T02:02:33.607Z,89.60
2019-02-22T02:03:33.611Z,89.03
2019-02-22T02:04:34.107Z,89.50
2019-02-22T02:05:34.107Z,89.89
2019-02-22T02:06:34.121Z,89.60
2019-02-22T02:07:37.611Z,90.36
2019-02-22T02:08:34.609Z,90.17
2019-02-22T02:09:55.608Z,90.55
2019-02-22T02:10:34.607Z,90.74
2019-02-22T02:11:34.622Z,90.93
2019-02-22T02:12:38.616Z,90.41
2019-02-22T02:13:35.106Z,90.93
2019-02-22T02:14:35.109Z,90.98
2019-02-22T02:15:35.107Z,91.69
2019-02-22T02:16:56.605Z,91.50
2019-02-22T02:18:00.107Z,91.79
2019-02-22T02:18:35.606Z,92.03
2019-02-22T02:19:56.606Z,91.65
2019-02-22T02:20:36.155Z,91.74
2019-02-22T02:21:36.118Z,92.17
2019-02-22T02:22:36.107Z,92.32
2019-02-22T02:23:40.107Z,92.46
2019-02-22T02:26:07.835Z,92.60
2019-02-22T02:27:07.842Z,92.60
2019-02-22T02:28:29.345Z,92.98
2019-02-22T02:29:11.342Z,92.89
2019-02-22T02:30:08.342Z,93.08
2019-02-22T02:31:07.807Z,92.41
2019-02-22T02:32:29.855Z,93.22
2019-02-22T02:34:43.087Z,92.79
2019-02-22T02:35:40.114Z,93.08
2019-02-22T02:36:40.097Z,92.69
2019-02-22T02:37:40.593Z,92.69
2019-02-22T02:38:40.595Z,92.55
2019-02-22T02:39:43.093Z,92.50
2019-02-22T02:40:40.593Z,93.32
2019-02-22T02:41:41.093Z,93.12
2019-02-22T02:42:41.116Z,92.79
2019-02-22T02:43:41.092Z,93.03
2019-02-22T02:44:44.602Z,92.69
2019-02-22T02:45:41.616Z,93.27
2019-02-22T02:46:41.598Z,93.03
2019-02-22T02:47:41.594Z,93.41
2019-02-22T02:48:41.592Z,92.74
2019-02-22T02:49:45.592Z,92.93
2019-02-22T02:50:42.097Z,93.03
2019-02-22T02:51:42.097Z,92.74
2019-02-22T02:52:42.171Z,93.22
2019-02-22T02:53:42.592Z,92.93
2019-02-22T02:54:42.635Z,92.89
2019-02-22T02:55:45.635Z,92.74
2019-02-22T02:56:42.704Z,93.12
2019-02-22T02:57:43.529Z,92.69
2019-02-22T02:58:43.092Z,93.51
2019-02-22T02:59:43.092Z,93.08
2019-02-22T03:00:46.613Z,93.17
2019-02-22T03:01:43.099Z,93.12
2019-02-22T03:02:43.594Z,93.08
2019-02-22T03:03:43.591Z,93.27
2019-02-22T03:04:43.595Z,92.89
2019-02-22T03:05:43.603Z,92.60
2019-02-22T03:06:47.604Z,92.93
2019-02-22T03:07:44.091Z,93.08
2019-02-22T03:08:44.100Z,92.74
2019-02-22T03:09:44.091Z,92.74
2019-02-22T03:11:05.591Z,92.84
2019-02-22T03:11:46.593Z,92.93
2019-02-22T03:12:47.592Z,91.88
2019-02-22T03:13:44.591Z,91.79
2019-02-22T03:14:45.104Z,91.98
2019-02-22T03:15:45.093Z,91.88
2019-02-22T03:16:45.092Z,91.79
2019-02-22T03:17:49.092Z,91.60
2019-02-22T03:19:08.048Z,91.55
2019-02-22T03:19:45.591Z,91.84
2019-02-22T03:20:45.592Z,91.88
2019-02-22T03:21:45.600Z,91.84
2019-02-22T03:23:16.591Z,91.41
2019-02-22T03:23:46.155Z,91.41
2019-02-22T03:24:46.096Z,91.41
2019-02-22T03:25:46.102Z,91.13
2019-02-22T03:26:46.103Z,90.84
2019-02-22T03:28:07.591Z,90.84
2019-02-22T03:28:50.090Z,90.84
2019-02-22T03:29:46.592Z,90.74
2019-02-22T03:30:46.595Z,90.74
2019-02-22T03:31:47.100Z,90.45
2019-02-22T03:32:47.093Z,90.45
2019-02-22T03:33:51.100Z,90.55
2019-02-22T03:34:47.122Z,90.55
2019-02-22T03:37:18.818Z,90.45
2019-02-22T03:38:18.826Z,90.36
2019-02-22T03:39:22.827Z,90.55
2019-02-22T03:40:19.325Z,90.36
2019-02-22T03:41:19.326Z,90.17
2019-02-22T03:42:19.328Z,90.55
2019-02-22T03:43:19.335Z,90.45
2019-02-22T03:44:19.826Z,90.36
2019-02-22T03:45:23.831Z,90.45
2019-02-22T03:46:19.828Z,90.17
2019-02-22T03:47:19.832Z,90.45
2019-02-22T03:48:20.332Z,90.55
2019-02-22T03:49:20.330Z,90.45
2019-02-22T03:50:20.325Z,90.55
2019-02-22T03:51:23.826Z,90.55
2019-02-22T03:52:41.856Z,90.64
2019-02-22T03:53:41.837Z,90.17
2019-02-22T03:54:20.825Z,90.45
2019-02-22T03:55:20.855Z,90.26
2019-02-22T03:56:24.831Z,90.26
2019-02-22T03:57:23.327Z,90.64
2019-02-22T03:58:21.325Z,90.08
2019-02-22T03:59:20.793Z,90.17
2019-02-22T04:00:21.825Z,90.08
2019-02-22T04:01:21.831Z,89.98
2019-02-22T04:02:25.826Z,89.89
2019-02-22T04:03:21.832Z,89.98
2019-02-22T04:04:22.327Z,89.50
2019-02-22T04:05:22.324Z,89.40
2019-02-22T04:06:22.334Z,89.50
2019-02-22T04:07:22.334Z,89.89
2019-02-22T04:08:25.825Z,89.69
2019-02-22T04:09:22.826Z,89.89
2019-02-22T04:10:22.825Z,89.60
2019-02-22T04:11:22.825Z,90.22
2019-02-22T04:12:22.414Z,90.22
2019-02-22T04:13:27.331Z,89.98
2019-02-22T04:14:44.339Z,90.08
2019-02-22T04:15:23.325Z,89.94
2019-02-22T04:16:23.836Z,89.55
2019-02-22T04:17:23.825Z,89.79
2019-02-22T04:18:23.826Z,89.22
2019-02-22T04:19:28.323Z,89.40
2019-02-22T04:20:24.402Z,89.17
2019-02-22T04:21:24.322Z,89.55
2019-02-22T04:22:24.363Z,89.94
2019-02-22T04:23:24.328Z,90.22
2019-02-22T04:24:24.834Z,90.17
2019-02-22T04:25:27.823Z,89.60
2019-02-22T04:26:24.829Z,89.89
2019-02-22T04:27:24.831Z,89.50
2019-02-22T04:28:25.324Z,89.26
2019-02-22T04:29:25.322Z,89.22
2019-02-22T04:30:29.324Z,89.50
2019-02-22T04:31:25.324Z,89.22
2019-02-22T04:32:25.826Z,89.22
2019-02-22T04:33:25.825Z,88.84
2019-02-22T04:34:25.823Z,88.79
2019-02-22T04:35:25.831Z,88.55
2019-02-22T04:36:30.323Z,88.60
2019-02-22T04:37:26.327Z,88.51
2019-02-22T04:38:26.326Z,89.26
2019-02-22T04:39:47.324Z,89.46
2019-02-22T04:40:47.823Z,89.17
2019-02-22T04:41:58.107Z,89.17
2019-02-22T04:42:26.827Z,89.40
2019-02-22T04:43:26.828Z,89.03
2019-02-22T04:44:27.365Z,89.22
2019-02-22T04:45:27.324Z,89.03
2019-02-22T04:46:27.328Z,88.98
2019-02-22T04:47:30.324Z,89.46
2019-02-22T04:48:27.855Z,89.65
2019-02-22T04:49:27.037Z,89.94
2019-02-22T04:50:27.832Z,90.12
2019-02-22T04:51:27.823Z,89.94
2019-02-22T04:52:31.328Z,90.03
2019-02-22T04:53:49.334Z,89.55
2019-02-22T04:54:28.327Z,90.12
2019-02-22T04:55:29.383Z,89.65
2019-02-22T04:56:28.323Z,90.03
2019-02-22T04:57:32.829Z,90.50
2019-02-22T05:00:02.685Z,90.41
2019-02-22T05:01:00.695Z,90.50
2019-02-22T05:02:00.155Z,90.50
2019-02-22T05:03:04.194Z,90.50
2019-02-22T05:04:01.188Z,90.12
2019-02-22T05:05:01.193Z,89.17
2019-02-22T05:06:01.192Z,89.94
2019-02-22T05:07:01.192Z,90.41
2019-02-22T05:08:05.193Z,90.12
2019-02-22T05:09:01.707Z,90.22
2019-02-22T05:10:01.689Z,90.17
2019-02-22T05:11:01.710Z,90.03
2019-02-22T05:12:10.329Z,90.27
2019-02-22T05:13:02.189Z,90.60
2019-02-22T05:14:05.200Z,90.84
2019-02-22T05:15:12.014Z,90.12
2019-02-22T05:16:02.696Z,90.17
2019-02-22T05:17:02.692Z,90.27
2019-02-22T05:18:02.688Z,90.22
2019-02-22T05:19:06.691Z,90.46
2019-02-22T05:20:03.193Z,90.03
2019-02-22T05:21:03.189Z,90.12
2019-02-22T05:22:03.189Z,90.03
2019-02-22T05:23:05.311Z,90.31
2019-02-22T05:24:03.708Z,89.89
2019-02-22T05:25:07.693Z,90.17
2019-02-22T05:26:03.688Z,90.36
2019-02-22T05:27:03.738Z,89.79
2019-02-22T05:28:04.191Z,89.70
2019-02-22T05:29:04.188Z,89.70
2019-02-22T05:30:04.188Z,89.79
2019-02-22T05:31:07.689Z,90.27
2019-02-22T05:32:05.642Z,89.41
2019-02-22T05:33:05.692Z,89.70
2019-02-22T05:34:05.659Z,89.70
2019-02-22T05:35:05.654Z,89.70
2019-02-22T05:36:08.707Z,89.51
2019-02-22T05:37:05.197Z,89.13
2019-02-22T05:38:05.186Z,88.22
2019-02-22T05:40:36.662Z,88.70
2019-02-22T05:41:40.184Z,87.84
2019-02-22T05:42:36.669Z,87.93
2019-02-22T05:45:08.400Z,88.98
2019-02-22T05:46:08.404Z,88.03
2019-02-22T05:47:11.905Z,87.89
2019-02-22T05:48:08.916Z,87.89
2019-02-22T05:49:08.904Z,87.65
2019-02-22T05:50:08.903Z,88.31
2019-02-22T05:51:08.903Z,87.98
2019-02-22T05:52:12.905Z,87.98
2019-02-22T05:53:09.406Z,88.27
2019-02-22T05:54:09.412Z,87.70
2019-02-22T05:55:09.414Z,87.98
2019-02-22T05:56:09.905Z,87.32
2019-02-22T05:57:09.918Z,87.03
2019-02-22T05:58:13.915Z,86.94
2019-02-22T05:59:09.904Z,86.75
2019-02-22T06:00:09.499Z,87.03
2019-02-22T06:01:10.408Z,86.75
2019-02-22T06:02:14.575Z,87.23
2019-02-22T06:03:10.405Z,87.23
2019-02-22T06:04:13.903Z,87.60
2019-02-22T06:05:31.905Z,88.37
2019-02-22T06:06:10.903Z,88.56
2019-02-22T06:07:10.912Z,88.75
2019-02-22T06:08:10.993Z,89.22
2019-02-22T06:09:15.403Z,89.18
2019-02-22T06:10:11.404Z,88.89
2019-02-22T06:11:11.405Z,89.08
2019-02-22T06:12:11.411Z,89.27
2019-02-22T06:13:32.902Z,89.65
2019-02-22T06:14:11.965Z,89.84
2019-02-22T06:15:35.986Z,90.32
2019-02-22T06:16:15.837Z,90.32
2019-02-22T06:17:14.807Z,90.42
2019-02-22T06:18:12.403Z,90.03
2019-02-22T06:19:12.407Z,89.84
2019-02-22T06:20:17.381Z,89.84
2019-02-22T06:21:15.162Z,89.84
2019-02-22T06:22:12.902Z,90.42
2019-02-22T06:23:12.901Z,90.32
2019-02-22T06:24:12.903Z,90.13
2019-02-22T06:25:17.876Z,90.42
2019-02-22T06:26:13.411Z,90.42
2019-02-22T06:27:13.403Z,90.32
2019-02-22T06:28:13.406Z,90.51
2019-02-22T06:29:13.401Z,90.22
2019-02-22T06:30:19.336Z,90.32
2019-02-22T06:31:17.339Z,90.22
2019-02-22T06:32:34.902Z,90.22
2019-02-22T06:33:13.916Z,90.13
2019-02-22T06:34:35.449Z,90.13
2019-02-22T06:35:14.402Z,90.13
2019-02-22T06:36:38.406Z,90.03
2019-02-22T06:37:14.405Z,90.22
2019-02-22T06:38:35.905Z,90.13
2019-02-22T06:39:14.901Z,90.61
2019-02-22T06:40:35.903Z,90.42
2019-02-22T06:41:18.017Z,90.80
2019-02-22T06:42:16.835Z,90.61
2019-02-22T06:43:36.428Z,90.03
2019-02-22T06:44:36.399Z,90.22
2019-02-22T06:45:15.412Z,90.42
2019-02-22T06:46:40.403Z,90.22
2019-02-22T06:47:15.901Z,90.61
2019-02-22T06:48:15.909Z,91.17
2019-02-22T06:49:15.902Z,90.61
2019-02-22T06:50:17.845Z,90.70
2019-02-22T06:51:16.403Z,90.80
2019-02-22T06:52:40.901Z,91.27
2019-02-22T06:53:16.399Z,91.27
2019-02-22T06:55:48.213Z,91.08
2019-02-22T06:56:48.135Z,91.65
2019-02-22T06:57:53.633Z,92.03
2019-02-22T06:58:48.644Z,91.75
2019-02-22T06:59:48.633Z,91.65
2019-02-22T07:00:48.646Z,91.65
2019-02-22T07:01:50.102Z,91.41
2019-02-22T07:02:52.633Z,91.22
2019-02-22T07:03:49.136Z,91.03
2019-02-22T07:04:49.137Z,90.65
2019-02-22T07:06:10.132Z,90.08
2019-02-22T07:06:49.695Z,90.17
2019-02-22T07:07:49.633Z,90.27
2019-02-22T07:08:53.633Z,89.89
2019-02-22T07:09:49.642Z,90.08
2019-02-22T07:10:50.133Z,89.51
2019-02-22T07:11:50.138Z,89.61
2019-02-22T07:12:56.715Z,89.79
2019-02-22T07:13:50.136Z,89.79
2019-02-22T07:14:53.633Z,89.79
2019-02-22T07:16:11.637Z,89.89
2019-02-22T07:16:51.580Z,89.51
2019-02-22T07:17:51.567Z,89.03
2019-02-22T07:18:50.632Z,89.79
2019-02-22T07:19:54.637Z,89.03
2019-02-22T07:20:51.133Z,89.13
2019-02-22T07:21:53.568Z,89.03
2019-02-22T07:22:55.067Z,89.41
2019-02-22T07:24:12.635Z,89.51
2019-02-22T07:24:57.067Z,89.79
2019-02-22T07:25:55.632Z,90.12
2019-02-22T07:26:51.636Z,89.84
2019-02-22T07:27:52.133Z,89.89
2019-02-22T07:28:52.142Z,89.79
2019-02-22T07:29:52.140Z,90.22
2019-02-22T07:30:52.143Z,90.03
2019-02-22T07:32:05.264Z,89.46
2019-02-22T07:32:51.868Z,89.46
2019-02-22T07:33:52.642Z,89.46
2019-02-22T07:34:52.635Z,88.41
2019-02-22T07:35:53.132Z,88.98
2019-02-22T07:36:57.134Z,88.41
2019-02-22T07:37:53.135Z,87.74
2019-02-22T07:38:53.131Z,87.84
2019-02-22T07:39:53.631Z,87.55
2019-02-22T07:40:53.631Z,87.84
2019-02-22T07:41:53.632Z,88.03
2019-02-22T07:44:28.332Z,87.98
2019-02-22T07:45:28.331Z,86.83
2019-02-22T07:46:28.355Z,87.12
2019-02-22T07:47:29.805Z,87.12
2019-02-22T07:48:32.330Z,86.79
2019-02-22T07:49:28.836Z,87.17
2019-02-22T07:50:28.845Z,87.79
2019-02-22T07:51:29.338Z,87.65
2019-02-22T07:52:31.264Z,86.88
2019-02-22T07:53:30.266Z,87.02
2019-02-22T07:54:53.335Z,87.36
2019-02-22T07:55:29.328Z,87.27
2019-02-22T07:56:50.836Z,87.17
2019-02-22T07:57:50.831Z,86.98
2019-02-22T07:58:29.831Z,86.79
2019-02-22T07:59:32.982Z,86.74
2019-02-22T08:00:30.330Z,87.07
2019-02-22T08:01:30.334Z,86.88
2019-02-22T08:02:35.264Z,86.83
2019-02-22T08:03:30.331Z,86.74
2019-02-22T08:04:30.827Z,86.88
2019-02-22T08:05:34.828Z,87.31
2019-02-22T08:06:30.843Z,87.55
2019-02-22T08:07:30.830Z,87.65
2019-02-22T08:08:32.264Z,87.50
2019-02-22T08:09:35.764Z,87.88
2019-02-22T08:10:31.337Z,87.69
2019-02-22T08:11:34.830Z,87.60
2019-02-22T08:12:31.851Z,87.50
2019-02-22T08:13:31.829Z,86.83
2019-02-22T08:14:31.843Z,86.26
2019-02-22T08:15:31.828Z,85.69
2019-02-22T08:16:56.829Z,86.16
2019-02-22T08:17:31.630Z,85.69
2019-02-22T08:18:32.336Z,85.12
2019-02-22T08:19:32.330Z,85.31
2019-02-22T08:20:32.829Z,84.55
2019-02-22T08:21:32.831Z,84.16
2019-02-22T08:22:36.831Z,84.07
2019-02-22T08:23:34.292Z,83.97
2019-02-22T08:24:33.269Z,84.55
2019-02-22T08:25:33.339Z,85.31
2019-02-22T08:26:32.667Z,85.02
2019-02-22T08:27:33.389Z,85.02
2019-02-22T08:28:36.831Z,85.02
2019-02-22T08:29:33.844Z,85.21
2019-02-22T08:30:33.838Z,86.36
2019-02-22T08:31:33.829Z,85.69
2019-02-22T08:32:34.333Z,86.07
2019-02-22T08:33:37.830Z,85.55
2019-02-22T08:34:34.329Z,85.69
2019-02-22T08:35:34.328Z,85.84
2019-02-22T08:37:09.832Z,85.46
2019-02-22T08:37:34.829Z,85.78
2019-02-22T08:38:34.829Z,85.84
2019-02-22T08:39:38.831Z,85.84
2019-02-22T08:40:56.336Z,86.32
2019-02-22T08:41:35.328Z,86.12
2019-02-22T08:42:35.328Z,85.55
2019-02-22T08:43:35.328Z,85.84
2019-02-22T08:44:35.828Z,86.65
2019-02-22T08:45:38.828Z,85.60
2019-02-22T08:48:07.808Z,85.02
2019-02-22T08:49:07.814Z,84.45
2019-02-22T08:50:09.782Z,84.83
2019-02-22T08:51:13.792Z,85.41
2019-02-22T08:52:07.627Z,84.74
2019-02-22T08:53:29.314Z,84.98
2019-02-22T08:54:08.317Z,85.12
2019-02-22T08:56:43.046Z,84.74
2019-02-22T08:57:40.050Z,83.97
2019-02-22T08:59:01.052Z,84.36
2019-02-22T08:59:39.649Z,83.97
2019-02-22T09:00:42.552Z,83.40
2019-02-22T09:01:45.481Z,83.21
2019-02-22T09:02:43.530Z,83.21
2019-02-22T09:05:33.247Z,83.31
2019-02-22T09:06:12.252Z,83.59
2019-02-22T09:07:36.770Z,83.31
2019-02-22T09:08:33.751Z,84.07
2019-02-22T09:09:12.763Z,83.21
2019-02-22T09:10:12.759Z,83.40
2019-02-22T09:11:12.750Z,82.07
2019-02-22T09:12:17.252Z,82.54
2019-02-22T09:13:43.142Z,82.07
2019-02-22T09:14:34.261Z,81.15
2019-02-22T09:15:13.250Z,81.92
2019-02-22T09:16:13.754Z,81.73
2019-02-22T09:17:13.780Z,81.82
2019-02-22T09:18:17.251Z,81.15
2019-02-22T09:19:13.750Z,81.44
2019-02-22T09:20:14.307Z,81.44
2019-02-22T09:21:14.250Z,80.77
2019-02-22T09:22:22.223Z,80.77
2019-02-22T09:23:18.251Z,80.87
2019-02-22T09:24:13.849Z,80.49
2019-02-22T09:25:14.754Z,80.77
2019-02-22T09:26:14.775Z,80.49
2019-02-22T09:27:14.750Z,80.68
2019-02-22T09:28:18.251Z,80.68
2019-02-22T09:29:15.261Z,80.49
2019-02-22T09:30:15.258Z,80.58
2019-02-22T09:31:15.250Z,80.01
2019-02-22T09:32:15.751Z,80.01
2019-02-22T09:33:40.750Z,80.58
2019-02-22T09:34:36.755Z,79.44
2019-02-22T09:35:29.750Z,79.91
2019-02-22T09:36:18.213Z,80.01
2019-02-22T09:37:18.685Z,79.91
2019-02-22T09:38:16.250Z,79.91
2019-02-22T09:39:40.750Z,79.72
2019-02-22T09:40:16.250Z,80.68
2019-02-22T09:41:37.750Z,79.82
2019-02-22T09:42:16.752Z,80.01
2019-02-22T09:43:17.706Z,80.49
2019-02-22T09:44:20.750Z,80.68
2019-02-22T09:45:16.758Z,79.88
2019-02-22T09:46:19.253Z,80.16
2019-02-22T09:47:17.250Z,80.54
2019-02-22T09:48:38.266Z,81.21
2019-02-22T09:49:17.251Z,81.49
2019-02-22T09:50:20.754Z,81.21
2019-02-22T09:51:17.754Z,81.06
2019-02-22T09:52:19.750Z,80.83
2019-02-22T09:53:17.749Z,80.73
2019-02-22T09:54:17.377Z,80.54
2019-02-22T09:55:21.749Z,80.54
2019-02-22T09:56:18.249Z,80.44
2019-02-22T09:58:52.294Z,80.64
2019-02-22T09:59:49.191Z,80.64
2019-02-22T10:00:53.362Z,80.26
2019-02-22T10:01:49.860Z,80.07
2019-02-22T10:02:50.375Z,79.97
2019-02-22T10:03:50.361Z,80.64
2019-02-22T10:04:54.923Z,80.44
2019-02-22T10:06:00.295Z,81.78
2019-02-22T10:07:04.909Z,81.78
2019-02-22T10:07:50.861Z,80.83
2019-02-22T10:10:22.213Z,79.72
2019-02-22T10:11:26.216Z,80.01
2019-02-22T10:12:21.691Z,79.25
2019-02-22T10:13:43.727Z,78.96
2019-02-22T10:14:22.725Z,79.06
2019-02-22T10:15:22.724Z,79.72
2019-02-22T10:16:22.724Z,79.06
2019-02-22T10:17:26.219Z,78.49
2019-02-22T10:18:23.219Z,78.67
2019-02-22T10:19:23.246Z,78.49
2019-02-22T10:20:23.220Z,79.25
2019-02-22T10:21:23.728Z,78.77
2019-02-22T10:22:26.222Z,79.53
2019-02-22T10:23:23.730Z,79.15
2019-02-22T10:24:23.719Z,78.86
2019-02-22T10:25:30.219Z,78.67
2019-02-22T10:26:24.222Z,78.86
2019-02-22T10:27:27.745Z,78.96
2019-02-22T10:28:24.219Z,79.06
2019-02-22T10:29:24.721Z,78.77
2019-02-22T10:30:24.723Z,79.06
2019-02-22T10:31:24.720Z,78.20
2019-02-22T10:32:28.721Z,78.01
2019-02-22T10:33:36.004Z,78.20
2019-02-22T10:34:25.238Z,78.49
2019-02-22T10:35:46.220Z,78.39
2019-02-22T10:36:45.131Z,78.39
2019-02-22T10:37:25.719Z,78.30
2019-02-22T10:38:29.717Z,78.49
2019-02-22T10:39:25.719Z,78.01
2019-02-22T10:40:28.153Z,77.53
2019-02-22T10:41:26.278Z,77.15
2019-02-22T10:42:26.221Z,78.01
2019-02-22T10:43:26.229Z,78.10
2019-02-22T10:44:29.717Z,77.91
2019-02-22T10:45:26.723Z,78.10
2019-02-22T10:46:26.725Z,78.67
2019-02-22T10:47:26.730Z,78.01
2019-02-22T10:48:26.721Z,77.78
2019-02-22T10:49:30.720Z,78.54
2019-02-22T10:50:27.222Z,78.16
2019-02-22T10:51:27.219Z,79.11
2019-02-22T10:52:27.246Z,78.73
2019-02-22T10:53:27.718Z,79.02
2019-02-22T10:54:27.717Z,79.49
2019-02-22T10:55:31.717Z,80.07
2019-02-22T10:56:28.414Z,79.59
2019-02-22T10:57:28.299Z,79.30
2019-02-22T10:58:28.218Z,80.16
2019-02-22T10:59:28.294Z,79.88
2019-02-22T11:00:27.598Z,79.88
2019-02-22T11:01:31.719Z,79.97
2019-02-22T11:02:31.175Z,79.97
2019-02-22T11:03:28.728Z,79.88
2019-02-22T11:04:28.722Z,80.07
2019-02-22T11:05:28.723Z,79.68
2019-02-22T11:06:54.216Z,79.68
2019-02-22T11:07:29.225Z,79.78
2019-02-22T11:08:29.222Z,80.16
2019-02-22T11:09:29.220Z,80.44
2019-02-22T11:10:29.811Z,80.92
2019-02-22T11:11:29.723Z,80.92
2019-02-22T11:14:04.429Z,81.30
2019-02-22T11:15:04.437Z,81.12
2019-02-22T11:16:04.939Z,81.49
2019-02-22T11:17:04.938Z,81.30
2019-02-22T11:18:29.445Z,81.40
2019-02-22T11:19:04.939Z,81.78
2019-02-22T11:20:05.438Z,81.49
2019-02-22T11:21:05.438Z,80.54
2019-02-22T11:22:04.779Z,80.83
2019-02-22T11:23:05.453Z,80.64
2019-02-22T11:24:09.437Z,80.54
2019-02-22T11:25:26.942Z,80.73
2019-02-22T11:26:06.903Z,80.16
2019-02-22T11:27:07.938Z,79.88
2019-02-22T11:28:26.937Z,79.44
2019-02-22T11:29:21.900Z,79.15
2019-02-22T11:30:11.440Z,79.53
2019-02-22T11:31:06.437Z,79.25
2019-02-22T11:32:06.437Z,79.06
2019-02-22T11:33:06.938Z,78.43
2019-02-22T11:34:06.939Z,77.95
2019-02-22T11:35:10.041Z,77.95
2019-02-22T11:36:06.945Z,76.81
2019-02-22T11:37:28.437Z,76.81
2019-02-22T11:38:06.659Z,76.71
2019-02-22T11:39:28.438Z,76.23
2019-02-22T11:40:07.446Z,76.04
2019-02-22T11:41:35.373Z,76.23
2019-02-22T11:42:07.946Z,76.08
2019-02-22T11:43:07.951Z,75.09
2019-02-22T11:44:07.938Z,75.28
2019-02-22T11:45:29.439Z,75.57
2019-02-22T11:46:33.440Z,75.37
2019-02-22T11:47:30.371Z,76.04
2019-02-22T11:48:10.438Z,76.90
2019-02-22T11:49:29.938Z,76.90
2019-02-22T11:52:04.794Z,74.90
2019-02-22T11:52:40.303Z,75.28
2019-02-22T11:53:40.803Z,74.99
2019-02-22T11:55:01.803Z,75.53
2019-02-22T11:55:40.803Z,75.53
2019-02-22T11:57:05.803Z,75.72
2019-02-22T11:57:41.301Z,76.04
2019-02-22T11:58:40.521Z,75.43
2019-02-22T11:59:40.614Z,74.52
2019-02-22T12:00:41.321Z,74.57
2019-02-22T12:01:41.305Z,74.57
2019-02-22T12:04:37.114Z,75.43
2019-02-22T12:05:37.153Z,75.62
2019-02-22T12:06:16.128Z,75.05
2019-02-22T12:07:18.666Z,75.18
2019-02-22T12:08:40.122Z,75.15
2019-02-22T12:09:16.622Z,75.15
2019-02-22T12:10:16.624Z,75.09
2019-02-22T12:11:17.127Z,74.57
2019-02-22T12:12:17.121Z,74.80
2019-02-22T12:13:41.616Z,74.99
2019-02-22T12:14:17.123Z,75.09
2019-02-22T12:15:38.622Z,74.71
2019-02-22T12:16:38.628Z,74.52
2019-02-22T12:17:17.682Z,74.99
2019-02-22T12:18:21.621Z,74.52
2019-02-22T12:19:18.122Z,73.85
2019-02-22T12:20:17.339Z,73.56
2019-02-22T12:21:18.124Z,73.56
2019-02-22T12:22:18.125Z,73.75
2019-02-22T12:23:18.624Z,73.47
2019-02-22T12:24:21.626Z,74.13
2019-02-22T12:25:18.628Z,73.85
2019-02-22T12:26:18.627Z,73.85
2019-02-22T12:27:40.123Z,73.85
2019-02-22T12:28:20.555Z,73.66
2019-02-22T12:29:43.621Z,74.52
2019-02-22T12:30:20.563Z,74.32
2019-02-22T12:31:19.623Z,73.60
2019-02-22T12:32:40.623Z,73.88
2019-02-22T12:33:40.622Z,73.75
2019-02-22T12:34:44.121Z,73.85
2019-02-22T12:35:40.621Z,73.69
2019-02-22T12:36:43.122Z,73.66
2019-02-22T12:37:41.121Z,73.56
2019-02-22T12:38:41.122Z,73.66
2019-02-22T12:39:34.119Z,73.85
2019-02-22T12:40:24.119Z,73.94
2019-02-22T12:41:22.101Z,73.66
2019-02-22T12:42:41.626Z,73.56
2019-02-22T12:43:20.646Z,73.47
2019-02-22T12:44:42.125Z,73.66
2019-02-22T12:45:21.137Z,73.60
2019-02-22T12:46:25.121Z,73.79
2019-02-22T12:47:42.128Z,73.69
2019-02-22T12:49:53.800Z,72.55
2019-02-22T12:51:13.866Z,72.55
2019-02-22T12:51:56.368Z,72.45
2019-02-22T12:52:53.380Z,72.74
2019-02-22T12:53:54.341Z,72.71
2019-02-22T12:54:53.366Z,72.42
2019-02-22T12:55:53.366Z,72.71
2019-02-22T12:56:58.426Z,73.18
2019-02-22T12:57:53.876Z,73.28
2019-02-22T12:59:14.875Z,72.80
2019-02-22T12:59:53.865Z,72.13
2019-02-22T13:00:53.460Z,72.51
2019-02-22T13:01:54.365Z,72.61
2019-02-22T13:03:01.911Z,72.42
2019-02-22T13:03:54.372Z,73.41
2019-02-22T13:04:54.390Z,72.80
2019-02-22T13:07:25.974Z,73.03
2019-02-22T13:08:29.596Z,72.55
2019-02-22T13:09:36.166Z,73.69
2019-02-22T13:10:48.099Z,72.99
2019-02-22T13:11:27.099Z,73.03
2019-02-22T13:12:27.096Z,72.89
2019-02-22T13:13:30.600Z,73.56
2019-02-22T13:14:27.596Z,73.18
2019-02-22T13:15:27.597Z,73.66
2019-02-22T13:16:27.602Z,73.28
2019-02-22T13:17:30.671Z,73.75
2019-02-22T13:18:31.608Z,74.71
2019-02-22T13:19:28.138Z,74.42
2019-02-22T13:20:28.100Z,74.52
2019-02-22T13:21:28.102Z,74.80
2019-02-22T13:22:28.594Z,74.42
2019-02-22T13:23:28.597Z,74.29
2019-02-22T13:24:32.594Z,74.71